Hauptseite
METAR-TAF:

METAR-TAF

Flughäfen :

Canadian Forces Base Borden

Borden, Ontario, Kanada

Breite: 44-15N, Länge: 079-55W, Höhe: 223 m

Beobachtung

Neuester Wetterbericht von vor 29 Minuten, um 04:00 UTC
Windstille
Temperatur -2°C
Luftfeuchtigkeit 86%
Luftdruck 1012 hPa
Sichtweite: 14.5 km
Himmel klar

METAR: CYBN 140400Z AUTO 00000KT 9SM CLR M02/M04 A2987 RMK SLP126

Zeit: 23:29 (04:29 UTC)

Prognose

Neuester Wetterbericht von vor 10 Stunden und 59 Minuten, um 17:30 UTC
Gültige Prognose vom 13 um 18 UTC bis 14 um 06 UTC
Wind 8 kt aus Süd/Südost
Sichtweite: 10 km
Aufgelockert bewölkt in der Höhe von 9000 ft
Ab 14 um 0400 UTC
Wind 5 kt aus Süd/Südost
Sichtweite: 10 km
Durchbrochene Bewölkung in der Höhe von 9000 ft

TAF: CYBN 131730Z 1318/1406 16008KT P6SM SCT090 FM140400 15005KT P6SM BKN090 RMK FCST BASED ON AUTO OBS. NXT FCST BY 140000Z

Wetterbeobachtungen und Prognosen von mehr als 4000 Flughäfen (METAR und TAF Bericht).

Die verfügbaren Stationen werden durch gelbe und rote Markierungen auf der Karte dargestellt.

Führen Sie die Maus auf sie, um den Namen der Station zu sehen.

Darauf klicken, um die Beobachtung von Wetterbeobachtungen und Prognosen zu sehen.

Um die Karte zu ändern : klicken Sie auf den grünen Tasten mit einem schwarzen Kreuz Zum Vergrößern, auf den grünen Button mit einem Gedankenstrich zu verkleinern, oder auf die grünen Pfeile für benachbarte Karten.


METAR-TAF: